createdAt,value
2023-05-14T00:01:46.500Z,15.20
2023-05-14T00:05:52.264Z,12.40
2023-05-14T00:09:57.346Z,13.50
2023-05-14T00:14:02.428Z,13.90
2023-05-14T00:18:08.079Z,14.80
2023-05-14T00:22:13.165Z,10.90
2023-05-14T00:26:18.389Z,15.00
2023-05-14T00:30:23.691Z,13.30
2023-05-14T00:34:28.992Z,13.60
2023-05-14T00:38:34.066Z,14.20
2023-05-14T00:42:39.161Z,15.30
2023-05-14T00:46:44.657Z,13.50
2023-05-14T00:50:50.598Z,13.90
2023-05-14T00:54:55.686Z,17.10
2023-05-14T00:59:00.846Z,14.70
2023-05-14T01:03:07.640Z,14.30
2023-05-14T01:07:17.918Z,14.00
2023-05-14T01:11:25.819Z,12.80
2023-05-14T01:15:32.363Z,15.80
2023-05-14T01:19:40.109Z,14.50
2023-05-14T01:23:45.127Z,16.50
2023-05-14T01:27:52.726Z,15.20
2023-05-14T01:31:58.604Z,17.60
2023-05-14T01:36:03.910Z,12.60
2023-05-14T01:40:10.815Z,12.30
2023-05-14T01:44:16.106Z,15.20
2023-05-14T01:52:24.783Z,16.70
2023-05-14T01:56:29.887Z,16.50
2023-05-14T02:00:35.025Z,14.10
2023-05-14T02:04:40.104Z,16.60
2023-05-14T02:08:45.240Z,16.80
2023-05-14T02:12:50.274Z,15.80
2023-05-14T02:16:55.523Z,15.90
2023-05-14T02:21:00.829Z,15.10
2023-05-14T02:25:06.575Z,15.50
2023-05-14T02:29:11.654Z,17.70
2023-05-14T02:33:16.958Z,14.70
2023-05-14T02:37:22.170Z,15.90
2023-05-14T02:41:27.281Z,16.20
2023-05-14T02:45:32.350Z,14.70
2023-05-14T02:49:37.460Z,14.70
2023-05-14T02:53:42.516Z,14.20
2023-05-14T02:57:47.849Z,16.80
2023-05-14T03:01:52.955Z,13.10
2023-05-14T03:05:58.701Z,13.10
2023-05-14T03:10:04.206Z,13.20
2023-05-14T03:14:09.279Z,13.80
2023-05-14T03:18:15.462Z,18.80
2023-05-14T03:22:20.562Z,16.00
2023-05-14T03:26:25.653Z,14.50
2023-05-14T03:30:30.808Z,15.40
2023-05-14T03:34:35.966Z,14.60
2023-05-14T03:38:41.176Z,13.40
2023-05-14T03:42:46.257Z,15.60
2023-05-14T03:46:51.422Z,13.40
2023-05-14T03:50:56.494Z,15.10
2023-05-14T03:55:01.568Z,17.00
2023-05-14T03:59:06.786Z,14.40
2023-05-14T04:03:12.211Z,13.60
2023-05-14T04:07:17.421Z,13.40
2023-05-14T04:11:22.584Z,14.20
2023-05-14T04:15:27.870Z,13.80
2023-05-14T04:23:36.470Z,13.00
2023-05-14T04:27:41.600Z,13.70
2023-05-14T04:31:47.104Z,15.50
2023-05-14T04:35:52.739Z,12.70
2023-05-14T04:39:58.042Z,14.50
2023-05-14T04:48:07.957Z,14.70
2023-05-14T04:52:13.401Z,11.30
2023-05-14T04:56:18.513Z,10.00
2023-05-14T05:00:23.804Z,13.00
2023-05-14T05:04:29.137Z,11.40
2023-05-14T05:08:34.206Z,10.40
2023-05-14T05:12:39.461Z,10.50
2023-05-14T05:16:45.006Z,10.50
2023-05-14T05:20:50.107Z,10.40
2023-05-14T05:28:58.817Z,12.10
2023-05-14T05:33:04.031Z,13.10
2023-05-14T05:37:12.733Z,12.30
2023-05-14T05:41:17.935Z,11.80
2023-05-14T05:45:23.045Z,11.50
2023-05-14T05:49:28.123Z,14.50
2023-05-14T05:53:33.184Z,12.70
2023-05-14T05:57:38.291Z,11.60
2023-05-14T06:01:43.664Z,13.40
2023-05-14T06:05:48.882Z,11.70
2023-05-14T06:09:54.154Z,15.00
2023-05-14T06:13:59.329Z,11.80
2023-05-14T06:18:04.396Z,14.50
2023-05-14T06:22:09.558Z,13.70
2023-05-14T06:26:14.698Z,13.80
2023-05-14T06:30:19.797Z,11.20
2023-05-14T06:34:24.870Z,12.30
2023-05-14T06:38:29.975Z,12.60
2023-05-14T06:42:35.076Z,12.80
2023-05-14T06:46:40.126Z,11.20
2023-05-14T06:50:45.347Z,9.70
2023-05-14T06:54:50.571Z,10.10
2023-05-14T06:58:55.638Z,9.60
2023-05-14T07:03:00.827Z,8.70
2023-05-14T07:07:06.793Z,8.10
2023-05-14T07:11:11.862Z,7.30
2023-05-14T07:15:16.966Z,8.50
2023-05-14T07:19:22.364Z,7.50
2023-05-14T07:23:27.563Z,7.20
2023-05-14T07:27:32.674Z,6.40
2023-05-14T07:31:37.900Z,6.10
2023-05-14T07:35:43.084Z,5.90
2023-05-14T07:39:48.257Z,7.80
2023-05-14T07:43:53.609Z,5.20
2023-05-14T07:47:58.813Z,7.30
2023-05-14T07:52:03.975Z,5.40
2023-05-14T07:56:10.457Z,7.30
2023-05-14T08:00:16.837Z,6.80
2023-05-14T08:04:23.415Z,7.50
2023-05-14T08:08:28.563Z,5.70
2023-05-14T08:12:33.640Z,5.60
2023-05-14T08:16:38.873Z,6.20
2023-05-14T08:20:43.965Z,5.60
2023-05-14T08:24:49.020Z,6.60
2023-05-14T08:28:54.209Z,4.90
2023-05-14T08:32:59.482Z,5.20
2023-05-14T08:37:04.692Z,5.40
2023-05-14T08:41:11.646Z,6.30
2023-05-14T08:45:19.088Z,5.00
2023-05-14T08:49:28.050Z,4.40
2023-05-14T08:53:33.131Z,5.40
2023-05-14T08:57:38.460Z,5.50
2023-05-14T09:01:45.804Z,4.70
2023-05-14T09:05:52.560Z,5.40
2023-05-14T09:09:57.717Z,4.40
2023-05-14T09:14:02.915Z,4.30
2023-05-14T09:18:08.486Z,3.60
2023-05-14T09:22:14.269Z,4.80
2023-05-14T09:26:19.599Z,3.80
2023-05-14T09:30:25.282Z,5.20
2023-05-14T09:34:30.998Z,4.40
2023-05-14T09:38:36.087Z,6.00
2023-05-14T09:42:41.396Z,4.80
2023-05-14T09:46:46.701Z,4.40
2023-05-14T09:50:52.190Z,4.80
2023-05-14T09:54:57.385Z,3.10
2023-05-14T09:59:02.490Z,6.70
2023-05-14T10:03:08.448Z,5.20
2023-05-14T10:07:14.004Z,4.60
2023-05-14T10:11:20.915Z,10.30
2023-05-14T10:15:28.619Z,5.20
2023-05-14T10:19:34.775Z,4.20
2023-05-14T10:23:40.663Z,7.60
2023-05-14T10:27:46.105Z,3.30
2023-05-14T10:31:53.769Z,3.60
2023-05-14T10:36:01.370Z,5.40
2023-05-14T10:40:08.314Z,7.40
2023-05-14T10:44:13.389Z,4.60
2023-05-14T10:48:19.676Z,5.10
2023-05-14T10:52:25.298Z,2.60
2023-05-14T10:56:30.361Z,3.70
2023-05-14T11:00:36.489Z,8.00
2023-05-14T11:04:42.093Z,4.10
2023-05-14T11:08:47.239Z,6.80
2023-05-14T11:12:53.190Z,5.10
2023-05-14T11:16:58.441Z,4.30
2023-05-14T11:21:03.825Z,4.30
2023-05-14T11:25:10.324Z,4.00
2023-05-14T11:29:15.567Z,6.00
2023-05-14T11:33:21.028Z,6.40
2023-05-14T11:37:26.138Z,3.90
2023-05-14T11:41:31.455Z,3.80
2023-05-14T11:45:37.830Z,4.10
2023-05-14T11:49:43.492Z,5.80
2023-05-14T11:53:48.556Z,5.10
2023-05-14T11:57:56.117Z,5.10
2023-05-14T12:02:01.543Z,3.90
2023-05-14T12:06:07.710Z,4.80
2023-05-14T12:10:13.243Z,4.60
2023-05-14T12:14:19.365Z,4.20
2023-05-14T12:18:25.661Z,4.50
2023-05-14T12:22:30.886Z,5.10
2023-05-14T12:26:36.066Z,4.10
2023-05-14T12:30:41.271Z,4.40
2023-05-14T12:34:46.423Z,3.20
2023-05-14T12:38:51.905Z,4.40
2023-05-14T12:42:57.178Z,4.80
2023-05-14T12:47:02.304Z,3.20
2023-05-14T12:51:07.446Z,6.00
2023-05-14T12:55:12.556Z,4.60
2023-05-14T12:59:17.635Z,4.40
2023-05-14T13:03:22.807Z,3.90
2023-05-14T13:07:28.111Z,3.60
2023-05-14T13:11:33.449Z,5.30
2023-05-14T13:15:38.798Z,3.60
2023-05-14T13:19:43.948Z,4.10
2023-05-14T13:23:49.094Z,3.70
2023-05-14T13:27:54.264Z,4.30
2023-05-14T13:31:59.368Z,4.00
2023-05-14T13:36:04.868Z,5.30
2023-05-14T13:40:11.050Z,4.30
2023-05-14T13:44:16.167Z,4.10
2023-05-14T13:48:21.221Z,3.80
2023-05-14T13:52:26.636Z,3.60
2023-05-14T13:56:31.711Z,3.50
2023-05-14T14:00:36.838Z,3.20
2023-05-14T14:04:41.947Z,5.30
2023-05-14T14:08:47.053Z,5.00
2023-05-14T14:12:52.480Z,2.80
2023-05-14T14:16:57.537Z,4.30
2023-05-14T14:21:02.741Z,4.00
2023-05-14T14:25:08.523Z,6.40
2023-05-14T14:29:13.629Z,5.60
2023-05-14T14:33:18.713Z,4.90
2023-05-14T14:37:23.806Z,4.50
2023-05-14T14:41:29.029Z,4.10
2023-05-14T14:45:34.109Z,5.00
2023-05-14T14:49:39.210Z,5.00
2023-05-14T14:53:44.321Z,6.10
2023-05-14T14:57:49.421Z,4.30
2023-05-14T15:01:54.520Z,4.60
2023-05-14T15:05:59.610Z,4.10
2023-05-14T15:10:05.040Z,6.30
2023-05-14T15:14:10.260Z,3.20
2023-05-14T15:18:15.398Z,4.20
2023-05-14T15:22:20.799Z,4.90
2023-05-14T15:26:26.268Z,5.80
2023-05-14T15:30:31.384Z,5.00
2023-05-14T15:34:36.522Z,7.80
2023-05-14T15:38:42.328Z,5.80
2023-05-14T15:42:47.512Z,6.10
2023-05-14T15:46:52.821Z,10.20
2023-05-14T15:50:58.894Z,4.60
2023-05-14T15:55:04.424Z,8.10
2023-05-14T15:59:09.579Z,5.10
2023-05-14T16:03:14.824Z,4.20
2023-05-14T16:07:20.083Z,8.40
2023-05-14T16:11:25.174Z,5.40
2023-05-14T16:15:30.290Z,7.00
2023-05-14T16:19:35.364Z,9.30
2023-05-14T16:23:40.600Z,4.50
2023-05-14T16:27:45.703Z,9.20
2023-05-14T16:31:50.796Z,7.00
2023-05-14T16:35:55.983Z,7.80
2023-05-14T16:40:01.065Z,5.30
2023-05-14T16:44:06.294Z,4.50
2023-05-14T16:48:11.526Z,4.70
2023-05-14T16:52:16.693Z,8.60
2023-05-14T16:56:22.361Z,7.00
2023-05-14T17:00:27.521Z,6.30
2023-05-14T17:04:33.426Z,4.20
2023-05-14T17:08:38.651Z,10.40
2023-05-14T17:12:43.749Z,4.20
2023-05-14T17:16:47.697Z,3.70
2023-05-14T17:20:52.743Z,4.40
2023-05-14T17:24:57.837Z,5.20
2023-05-14T17:29:03.235Z,4.50
2023-05-14T17:33:08.471Z,3.80
2023-05-14T17:37:13.702Z,5.60
2023-05-14T17:41:18.798Z,5.80
2023-05-14T17:45:24.201Z,3.90
2023-05-14T17:49:29.576Z,4.00
2023-05-14T17:53:34.669Z,4.10
2023-05-14T17:57:39.777Z,3.50
2023-05-14T18:01:44.877Z,6.20
2023-05-14T18:05:50.590Z,3.90
2023-05-14T18:09:55.701Z,4.30
2023-05-14T18:14:00.813Z,4.90
2023-05-14T18:18:06.333Z,7.50
2023-05-14T18:22:11.502Z,5.10
2023-05-14T18:26:16.681Z,4.30
2023-05-14T18:30:21.778Z,4.40
2023-05-14T18:34:26.864Z,5.80
2023-05-14T18:38:31.913Z,7.30
2023-05-14T18:42:36.991Z,6.50
2023-05-14T18:46:42.349Z,8.10
2023-05-14T18:50:47.513Z,7.60
2023-05-14T18:54:53.740Z,10.40
2023-05-14T18:58:59.434Z,8.10
2023-05-14T19:03:04.654Z,10.80
2023-05-14T19:07:09.801Z,9.00
2023-05-14T19:11:14.982Z,9.60
2023-05-14T19:15:20.416Z,9.80
2023-05-14T19:19:25.499Z,8.50
2023-05-14T19:23:32.689Z,7.00
2023-05-14T19:27:38.779Z,10.30
2023-05-14T19:31:43.869Z,6.20
2023-05-14T19:35:49.050Z,8.80
2023-05-14T19:39:54.194Z,7.20
2023-05-14T19:43:59.330Z,6.40
2023-05-14T19:48:05.732Z,7.50
2023-05-14T19:52:11.400Z,6.90
2023-05-14T19:56:16.785Z,7.60
2023-05-14T20:00:22.858Z,9.10
2023-05-14T20:04:28.270Z,7.50
2023-05-14T20:08:33.417Z,10.20
2023-05-14T20:12:38.487Z,9.00
2023-05-14T20:16:43.833Z,10.20
2023-05-14T20:20:49.366Z,11.60
2023-05-14T20:24:54.477Z,8.90
2023-05-14T20:28:59.576Z,13.70
2023-05-14T20:33:04.757Z,12.20
2023-05-14T20:37:10.150Z,12.80
2023-05-14T20:41:15.282Z,15.00
2023-05-14T20:45:20.413Z,12.30
2023-05-14T20:49:25.497Z,14.30
2023-05-14T20:53:31.273Z,12.80
2023-05-14T20:57:36.365Z,15.20
2023-05-14T21:01:42.655Z,12.40
2023-05-14T21:05:47.758Z,11.40
2023-05-14T21:09:53.211Z,11.20
2023-05-14T21:13:58.419Z,9.80
2023-05-14T21:18:04.150Z,11.10
2023-05-14T21:22:09.350Z,9.90
2023-05-14T21:26:14.409Z,9.20
2023-05-14T21:30:19.567Z,11.60
2023-05-14T21:34:24.894Z,8.40
2023-05-14T21:38:30.061Z,8.30
2023-05-14T21:42:35.090Z,9.60
2023-05-14T21:46:40.321Z,10.80
2023-05-14T21:50:45.374Z,11.50
2023-05-14T21:54:50.461Z,11.80
2023-05-14T21:58:56.148Z,10.00
2023-05-14T22:03:01.368Z,9.50
2023-05-14T22:07:06.601Z,9.20
2023-05-14T22:11:11.704Z,9.00
2023-05-14T22:15:16.782Z,8.50
2023-05-14T22:19:22.385Z,10.30
2023-05-14T22:23:27.963Z,9.90
2023-05-14T22:27:33.202Z,11.60
2023-05-14T22:31:38.321Z,11.40
2023-05-14T22:35:43.462Z,9.40
2023-05-14T22:39:48.748Z,9.30
2023-05-14T22:43:53.836Z,9.50
2023-05-14T22:47:59.490Z,9.30
2023-05-14T22:52:04.758Z,8.20
2023-05-14T22:56:09.875Z,9.40
2023-05-14T23:00:15.909Z,9.50
2023-05-14T23:04:21.872Z,8.20
2023-05-14T23:08:26.997Z,8.30
2023-05-14T23:12:32.108Z,9.10
2023-05-14T23:16:37.232Z,7.70
2023-05-14T23:20:42.303Z,9.70
2023-05-14T23:24:47.371Z,7.50
2023-05-14T23:28:52.489Z,7.90
2023-05-14T23:32:57.599Z,7.70
2023-05-14T23:37:02.743Z,8.60
2023-05-14T23:41:07.833Z,11.20
2023-05-14T23:45:13.696Z,7.00
2023-05-14T23:49:18.859Z,7.10
2023-05-14T23:53:23.950Z,5.80
2023-05-14T23:57:29.082Z,4.90
